PS72 weather

Haig-K Heliport
Lionville, Pennsylvania, United States

Public forecast

Using degrees Fahrenheit for public forecast. Weather courtesy of forecast.io.

METAR (pilot weather report)

Closest report is Brandywine Regional Airport, 4.7 nm (8.7 km) SSE. Retrieved 2019/09/23 10:35 UTC (17 minutes ago):

KOQN 231035Z AUTO 00000KT 10SM CLR 20/18 A2996 RMK AO2

TAF (pilot weather forecast)

Closest forecast is Philadelphia International Airport, 20.6 nm (38.1 km) SE. Retrieved 2019/09/23 06:45 UTC (4 hours ago):

TAF KPHL 230538Z 2306/2412 19005KT P6SM FEW250 FM231000 20005KT 6SM BR SCT200 FM231300 23008KT P6SM BKN200 FM231800 23011G16KT P6SM BKN150 FM240100 27007KT P6SM BKN070